sensor_id;sensor_type;location;lat;lon;timestamp;pressure;altitude;pressure_sealevel;temperature;humidity
21594;BME280;10959;51.328;7.322;2023-02-10T00:00:29;100586.75;;;5.57;69.09
21594;BME280;10959;51.328;7.322;2023-02-10T00:02:55;100591.22;;;5.57;69.03
21594;BME280;10959;51.328;7.322;2023-02-10T00:05:22;100582.31;;;5.59;69.14
21594;BME280;10959;51.328;7.322;2023-02-10T00:07:48;100592.13;;;5.60;69.08
21594;BME280;10959;51.328;7.322;2023-02-10T00:10:16;100593.88;;;5.61;69.06
21594;BME280;10959;51.328;7.322;2023-02-10T00:12:42;100592.13;;;5.60;69.13
21594;BME280;10959;51.328;7.322;2023-02-10T00:15:09;100599.22;;;5.61;69.18
21594;BME280;10959;51.328;7.322;2023-02-10T00:17:35;100598.31;;;5.64;68.74
21594;BME280;10959;51.328;7.322;2023-02-10T00:20:02;100604.56;;;5.64;69.11
21594;BME280;10959;51.328;7.322;2023-02-10T00:22:28;100596.56;;;5.66;68.91
21594;BME280;10959;51.328;7.322;2023-02-10T00:24:55;100604.56;;;5.67;69.13
21594;BME280;10959;51.328;7.322;2023-02-10T00:27:23;100604.56;;;5.67;68.89
21594;BME280;10959;51.328;7.322;2023-02-10T00:29:50;100610.81;;;5.65;68.78
21594;BME280;10959;51.328;7.322;2023-02-10T00:32:16;100609.91;;;5.67;68.85
21594;BME280;10959;51.328;7.322;2023-02-10T00:34:43;100600.09;;;5.69;68.89
21594;BME280;10959;51.328;7.322;2023-02-10T00:37:09;100605.44;;;5.71;68.98
21594;BME280;10959;51.328;7.322;2023-02-10T00:39:36;100602.78;;;5.72;69.03
21594;BME280;10959;51.328;7.322;2023-02-10T00:42:03;100606.31;;;5.71;69.29
21594;BME280;10959;51.328;7.322;2023-02-10T00:44:31;100606.31;;;5.71;69.25
21594;BME280;10959;51.328;7.322;2023-02-10T00:46:57;100597.44;;;5.72;69.23
21594;BME280;10959;51.328;7.322;2023-02-10T00:49:23;100602.78;;;5.72;69.17
21594;BME280;10959;51.328;7.322;2023-02-10T00:51:50;100607.25;;;5.72;69.08
21594;BME280;10959;51.328;7.322;2023-02-10T00:54:16;100603.66;;;5.71;69.38
21594;BME280;10959;51.328;7.322;2023-02-10T00:56:43;100602.75;;;5.76;69.33
21594;BME280;10959;51.328;7.322;2023-02-10T00:59:11;100608.13;;;5.72;69.30
21594;BME280;10959;51.328;7.322;2023-02-10T01:01:39;100614.38;;;5.73;69.08
21594;BME280;10959;51.328;7.322;2023-02-10T01:04:06;100608.13;;;5.72;69.82
21594;BME280;10959;51.328;7.322;2023-02-10T01:06:32;100608.13;;;5.72;69.31
21594;BME280;10959;51.328;7.322;2023-02-10T01:08:59;100611.69;;;5.75;69.79
21594;BME280;10959;51.328;7.322;2023-02-10T01:11:25;100611.69;;;5.75;69.75
21594;BME280;10959;51.328;7.322;2023-02-10T01:13:52;100611.69;;;5.75;69.45
21594;BME280;10959;51.328;7.322;2023-02-10T01:16:18;100617.03;;;5.75;69.87
21594;BME280;10959;51.328;7.322;2023-02-10T01:18:46;100615.25;;;5.77;69.65
21594;BME280;10959;51.328;7.322;2023-02-10T01:21:14;100624.16;;;5.76;69.51
21594;BME280;10959;51.328;7.322;2023-02-10T01:23:42;100617.03;;;5.75;69.86
21594;BME280;10959;51.328;7.322;2023-02-10T01:26:09;100617.03;;;5.75;69.78
21594;BME280;10959;51.328;7.322;2023-02-10T01:28:36;100618.81;;;5.76;69.98
21594;BME280;10959;51.328;7.322;2023-02-10T01:31:04;100621.47;;;5.72;69.92
21594;BME280;10959;51.328;7.322;2023-02-10T01:33:31;100622.38;;;5.71;70.21
21594;BME280;10959;51.328;7.322;2023-02-10T01:36:02;100625.97;;;5.67;70.08
21594;BME280;10959;51.328;7.322;2023-02-10T01:38:29;100618.81;;;5.68;70.11
21594;BME280;10959;51.328;7.322;2023-02-10T01:40:56;100629.50;;;5.69;70.40
21594;BME280;10959;51.328;7.322;2023-02-10T01:43:22;100625.94;;;5.70;70.93
21594;BME280;10959;51.328;7.322;2023-02-10T01:45:49;100631.28;;;5.70;70.65
21594;BME280;10959;51.328;7.322;2023-02-10T01:48:16;100627.72;;;5.71;70.66
21594;BME280;10959;51.328;7.322;2023-02-10T01:50:46;100624.16;;;5.66;70.39
21594;BME280;10959;51.328;7.322;2023-02-10T01:53:16;100626.84;;;5.71;70.85
21594;BME280;10959;51.328;7.322;2023-02-10T01:55:46;100636.63;;;5.64;70.65
21594;BME280;10959;51.328;7.322;2023-02-10T01:58:18;100644.66;;;5.63;70.69
21594;BME280;10959;51.328;7.322;2023-02-10T02:00:46;100641.06;;;5.71;70.19
21594;BME280;10959;51.328;7.322;2023-02-10T02:03:13;100636.63;;;5.74;70.65
21594;BME280;10959;51.328;7.322;2023-02-10T02:05:41;100640.19;;;5.72;70.49
21594;BME280;10959;51.328;7.322;2023-02-10T02:08:11;100649.13;;;5.75;70.17
21594;BME280;10959;51.328;7.322;2023-02-10T02:10:58;100649.09;;;5.65;70.26
21594;BME280;10959;51.328;7.322;2023-02-10T02:13:35;100657.13;;;5.62;70.24
21594;BME280;10959;51.328;7.322;2023-02-10T02:16:11;100650.91;;;5.66;70.45
21594;BME280;10959;51.328;7.322;2023-02-10T02:18:43;100652.69;;;5.67;69.98
21594;BME280;10959;51.328;7.322;2023-02-10T02:24:26;100650.00;;;5.53;70.86
21594;BME280;10959;51.328;7.322;2023-02-10T02:27:19;100654.44;;;5.48;70.46
21594;BME280;10959;51.328;7.322;2023-02-10T02:30:11;100656.22;;;5.48;70.53
21594;BME280;10959;51.328;7.322;2023-02-10T02:32:47;100659.81;;;5.59;70.64
21594;BME280;10959;51.328;7.322;2023-02-10T02:35:17;100655.34;;;5.58;70.67
21594;BME280;10959;51.328;7.322;2023-02-10T02:37:46;100654.47;;;5.59;71.14
21594;BME280;10959;51.328;7.322;2023-02-10T02:40:16;100666.94;;;5.60;71.22
21594;BME280;10959;51.328;7.322;2023-02-10T02:42:42;100666.94;;;5.60;71.01
21594;BME280;10959;51.328;7.322;2023-02-10T02:45:13;100666.03;;;5.57;71.34
21594;BME280;10959;51.328;7.322;2023-02-10T02:47:54;100658.91;;;5.45;71.13
21594;BME280;10959;51.328;7.322;2023-02-10T02:50:26;100656.22;;;5.54;71.14
21594;BME280;10959;51.328;7.322;2023-02-10T02:53:09;100662.44;;;5.47;71.29
21594;BME280;10959;51.328;7.322;2023-02-10T02:55:46;100672.25;;;5.51;71.34
21594;BME280;10959;51.328;7.322;2023-02-10T02:58:17;100666.94;;;5.60;71.21
21594;BME280;10959;51.328;7.322;2023-02-10T03:00:45;100678.50;;;5.62;71.29
21594;BME280;10959;51.328;7.322;2023-02-10T03:03:15;100673.16;;;5.59;71.48
21594;BME280;10959;51.328;7.322;2023-02-10T03:05:42;100674.03;;;5.61;71.28
21594;BME280;10959;51.328;7.322;2023-02-10T03:08:09;100670.50;;;5.62;71.32
21594;BME280;10959;51.328;7.322;2023-02-10T03:10:35;100674.03;;;5.61;71.23
21594;BME280;10959;51.328;7.322;2023-02-10T03:13:02;100677.63;;;5.60;70.92
21594;BME280;10959;51.328;7.322;2023-02-10T03:15:28;100674.03;;;5.58;70.96
21594;BME280;10959;51.328;7.322;2023-02-10T03:17:55;100671.38;;;5.58;70.84
21594;BME280;10959;51.328;7.322;2023-02-10T03:20:23;100674.94;;;5.56;71.06
21594;BME280;10959;51.328;7.322;2023-02-10T03:22:50;100671.38;;;5.50;71.18
21594;BME280;10959;51.328;7.322;2023-02-10T03:25:16;100666.03;;;5.49;71.32
21594;BME280;10959;51.328;7.322;2023-02-10T03:27:43;100663.38;;;5.47;71.24
21594;BME280;10959;51.328;7.322;2023-02-10T03:30:10;100665.13;;;5.47;71.34
21594;BME280;10959;51.328;7.322;2023-02-10T03:32:36;100658.00;;;5.43;71.12
21594;BME280;10959;51.328;7.322;2023-02-10T03:35:03;100652.66;;;5.43;71.41
21594;BME280;10959;51.328;7.322;2023-02-10T03:37:31;100647.31;;;5.36;71.12
21594;BME280;10959;51.328;7.322;2023-02-10T03:39:57;100642.84;;;5.37;71.55
21594;BME280;10959;51.328;7.322;2023-02-10T03:42:24;100639.28;;;5.36;71.43
21594;BME280;10959;51.328;7.322;2023-02-10T03:44:50;100638.41;;;5.34;71.60
21594;BME280;10959;51.328;7.322;2023-02-10T03:47:17;100639.28;;;5.32;71.60
21594;BME280;10959;51.328;7.322;2023-02-10T03:49:43;100634.84;;;5.32;71.59
21594;BME280;10959;51.328;7.322;2023-02-10T03:52:09;100636.63;;;5.27;71.79
21594;BME280;10959;51.328;7.322;2023-02-10T03:54:37;100629.50;;;5.26;71.90
21594;BME280;10959;51.328;7.322;2023-02-10T03:57:04;100633.91;;;5.24;71.79
21594;BME280;10959;51.328;7.322;2023-02-10T03:59:31;100630.38;;;5.24;71.94
21594;BME280;10959;51.328;7.322;2023-02-10T04:01:57;100636.59;;;5.21;71.89
21594;BME280;10959;51.328;7.322;2023-02-10T04:04:24;100631.25;;;5.19;71.89
21594;BME280;10959;51.328;7.322;2023-02-10T04:06:50;100638.38;;;5.16;71.96
21594;BME280;10959;51.328;7.322;2023-02-10T04:09:17;100643.69;;;5.13;71.96
21594;BME280;10959;51.328;7.322;2023-02-10T04:11:45;100641.94;;;5.09;71.99
21594;BME280;10959;51.328;7.322;2023-02-10T04:14:11;100651.69;;;5.07;72.07
21594;BME280;10959;51.328;7.322;2023-02-10T04:16:38;100657.91;;;5.06;71.79
21594;BME280;10959;51.328;7.322;2023-02-10T04:19:04;100659.69;;;5.04;71.95
21594;BME280;10959;51.328;7.322;2023-02-10T04:21:31;100666.78;;;5.01;71.85
21594;BME280;10959;51.328;7.322;2023-02-10T04:23:57;100664.13;;;4.97;71.85
21594;BME280;10959;51.328;7.322;2023-02-10T04:26:23;100656.09;;;4.92;71.95
21594;BME280;10959;51.328;7.322;2023-02-10T04:28:51;100660.56;;;4.90;71.98
21594;BME280;10959;51.328;7.322;2023-02-10T04:31:18;100662.31;;;4.85;72.07
21594;BME280;10959;51.328;7.322;2023-02-10T04:33:44;100672.09;;;4.83;71.93
21594;BME280;10959;51.328;7.322;2023-02-10T04:36:11;100663.16;;;4.78;72.25
21594;BME280;10959;51.328;7.322;2023-02-10T04:38:37;100664.91;;;4.73;72.14
21594;BME280;10959;51.328;7.322;2023-02-10T04:41:04;100665.84;;;4.75;72.05
21594;BME280;10959;51.328;7.322;2023-02-10T04:43:31;100658.69;;;4.71;72.00
21594;BME280;10959;51.328;7.322;2023-02-10T04:45:59;100663.13;;;4.68;71.77
21594;BME280;10959;51.328;7.322;2023-02-10T04:48:27;100663.09;;;4.64;71.87
21594;BME280;10959;51.328;7.322;2023-02-10T04:50:54;100663.09;;;4.59;71.95
21594;BME280;10959;51.328;7.322;2023-02-10T04:53:20;100659.50;;;4.57;72.15
21594;BME280;10959;51.328;7.322;2023-02-10T04:55:47;100666.63;;;4.58;72.07
21594;BME280;10959;51.328;7.322;2023-02-10T04:58:13;100666.63;;;4.55;72.00
21594;BME280;10959;51.328;7.322;2023-02-10T05:00:40;100661.25;;;4.49;72.04
21594;BME280;10959;51.328;7.322;2023-02-10T05:03:08;100670.16;;;4.48;72.07
21594;BME280;10959;51.328;7.322;2023-02-10T05:05:34;100652.34;;;4.44;71.97
21594;BME280;10959;51.328;7.322;2023-02-10T05:08:01;100655.88;;;4.40;72.53
21594;BME280;10959;51.328;7.322;2023-02-10T05:10:27;100662.06;;;4.37;72.60
21594;BME280;10959;51.328;7.322;2023-02-10T05:12:54;100653.19;;;4.37;73.13
21594;BME280;10959;51.328;7.322;2023-02-10T05:15:20;100659.41;;;4.36;73.18
21594;BME280;10959;51.328;7.322;2023-02-10T05:17:47;100658.50;;;4.33;73.27
21594;BME280;10959;51.328;7.322;2023-02-10T05:20:16;100670.97;;;4.33;73.37
21594;BME280;10959;51.328;7.322;2023-02-10T05:22:42;100663.84;;;4.30;73.38
21594;BME280;10959;51.328;7.322;2023-02-10T05:25:09;100668.25;;;4.31;73.37
21594;BME280;10959;51.328;7.322;2023-02-10T05:27:36;100670.06;;;4.32;73.10
21594;BME280;10959;51.328;7.322;2023-02-10T05:30:04;100674.50;;;4.29;73.21
21594;BME280;10959;51.328;7.322;2023-02-10T05:32:31;100677.16;;;4.30;73.35
21594;BME280;10959;51.328;7.322;2023-02-10T05:34:58;100676.25;;;4.28;73.27
21594;BME280;10959;51.328;7.322;2023-02-10T05:37:26;100675.34;;;4.26;72.98
21594;BME280;10959;51.328;7.322;2023-02-10T05:39:52;100677.09;;;4.24;73.28
21594;BME280;10959;51.328;7.322;2023-02-10T05:42:19;100688.66;;;4.22;73.19
21594;BME280;10959;51.328;7.322;2023-02-10T05:44:45;100692.19;;;4.18;73.15
21594;BME280;10959;51.328;7.322;2023-02-10T05:47:11;100692.19;;;4.14;73.05
21594;BME280;10959;51.328;7.322;2023-02-10T05:49:38;100701.91;;;4.11;73.13
21594;BME280;10959;51.328;7.322;2023-02-10T05:52:04;100701.03;;;4.10;73.13
21594;BME280;10959;51.328;7.322;2023-02-10T05:54:32;100703.69;;;4.09;73.14
21594;BME280;10959;51.328;7.322;2023-02-10T05:57:00;100703.63;;;4.03;73.38
21594;BME280;10959;51.328;7.322;2023-02-10T05:59:26;100692.94;;;4.03;73.12
21594;BME280;10959;51.328;7.322;2023-02-10T06:01:53;100699.16;;;4.00;73.37
21594;BME280;10959;51.328;7.322;2023-02-10T06:04:19;100695.59;;;4.00;73.42
21594;BME280;10959;51.328;7.322;2023-02-10T06:06:46;100696.47;;;3.98;73.55
21594;BME280;10959;51.328;7.322;2023-02-10T06:09:12;100698.25;;;3.96;73.75
21594;BME280;10959;51.328;7.322;2023-02-10T06:11:40;100703.59;;;3.96;73.56
21594;BME280;10959;51.328;7.322;2023-02-10T06:14:07;100707.09;;;3.92;74.06
21594;BME280;10959;51.328;7.322;2023-02-10T06:16:33;100711.56;;;3.93;73.63
21594;BME280;10959;51.328;7.322;2023-02-10T06:19:00;100710.63;;;3.91;73.75
21594;BME280;10959;51.328;7.322;2023-02-10T06:21:26;100713.28;;;3.91;73.74
21594;BME280;10959;51.328;7.322;2023-02-10T06:23:53;100707.06;;;3.86;73.70
21594;BME280;10959;51.328;7.322;2023-02-10T06:26:20;100712.38;;;3.86;73.50
21594;BME280;10959;51.328;7.322;2023-02-10T06:28:48;100717.69;;;3.83;73.31
21594;BME280;10959;51.328;7.322;2023-02-10T06:31:14;100714.09;;;3.78;73.61
21594;BME280;10959;51.328;7.322;2023-02-10T06:33:41;100721.13;;;3.73;73.48
21594;BME280;10959;51.328;7.322;2023-02-10T06:36:08;100710.47;;;3.73;73.50
21594;BME280;10959;51.328;7.322;2023-02-10T06:38:36;100722.88;;;3.68;73.96
21594;BME280;10959;51.328;7.322;2023-02-10T06:41:03;100728.19;;;3.68;73.64
21594;BME280;10959;51.328;7.322;2023-02-10T06:43:29;100729.94;;;3.66;73.62
21594;BME280;10959;51.328;7.322;2023-02-10T06:45:57;100733.50;;;3.65;73.57
21594;BME280;10959;51.328;7.322;2023-02-10T06:48:24;100733.50;;;3.65;73.58
21594;BME280;10959;51.328;7.322;2023-02-10T06:50:51;100745.03;;;3.65;73.72
21594;BME280;10959;51.328;7.322;2023-02-10T06:53:17;100745.91;;;3.62;73.77
21594;BME280;10959;51.328;7.322;2023-02-10T06:55:44;100745.88;;;3.59;73.75
21594;BME280;10959;51.328;7.322;2023-02-10T06:58:11;100745.88;;;3.59;73.78
21594;BME280;10959;51.328;7.322;2023-02-10T07:00:37;100749.41;;;3.58;73.44
21594;BME280;10959;51.328;7.322;2023-02-10T07:03:05;100752.91;;;3.54;73.88
21594;BME280;10959;51.328;7.322;2023-02-10T07:05:32;100749.34;;;3.52;74.04
21594;BME280;10959;51.328;7.322;2023-02-10T07:08:00;100747.66;;;3.57;73.88
21594;BME280;10959;51.328;7.322;2023-02-10T07:10:29;100746.72;;;3.55;73.99
21594;BME280;10959;51.328;7.322;2023-02-10T07:12:55;100748.50;;;3.55;74.07
21594;BME280;10959;51.328;7.322;2023-02-10T07:15:22;100752.97;;;3.57;73.97
21594;BME280;10959;51.328;7.322;2023-02-10T07:17:48;100753.88;;;3.61;74.08
21594;BME280;10959;51.328;7.322;2023-02-10T07:20:17;100753.00;;;3.60;74.07
21594;BME280;10959;51.328;7.322;2023-02-10T07:22:44;100745.88;;;3.59;74.22
21594;BME280;10959;51.328;7.322;2023-02-10T07:25:10;100750.34;;;3.60;74.19
21594;BME280;10959;51.328;7.322;2023-02-10T07:27:37;100745.91;;;3.62;74.33
21594;BME280;10959;51.328;7.322;2023-02-10T07:30:04;100733.53;;;3.68;74.22
21594;BME280;10959;51.328;7.322;2023-02-10T07:32:31;100747.75;;;3.70;73.99
21594;BME280;10959;51.328;7.322;2023-02-10T07:34:57;100739.75;;;3.68;74.32
21594;BME280;10959;51.328;7.322;2023-02-10T07:37:25;100736.22;;;3.71;74.31
21594;BME280;10959;51.328;7.322;2023-02-10T07:39:52;100729.94;;;3.66;74.63
21594;BME280;10959;51.328;7.322;2023-02-10T07:42:19;100730.84;;;3.63;74.77
21594;BME280;10959;51.328;7.322;2023-02-10T07:44:45;100731.75;;;3.67;75.10
21594;BME280;10959;51.328;7.322;2023-02-10T07:47:12;100734.44;;;3.73;75.12
21594;BME280;10959;51.328;7.322;2023-02-10T07:49:38;100738.91;;;3.74;75.41
21594;BME280;10959;51.328;7.322;2023-02-10T07:52:04;100747.84;;;3.76;75.08
21594;BME280;10959;51.328;7.322;2023-02-10T07:54:32;100751.38;;;3.78;75.07
21594;BME280;10959;51.328;7.322;2023-02-10T07:56:59;100751.41;;;3.81;74.99
21594;BME280;10959;51.328;7.322;2023-02-10T07:59:25;100761.22;;;3.85;74.97
21594;BME280;10959;51.328;7.322;2023-02-10T08:01:53;100762.13;;;3.87;74.91
21594;BME280;10959;51.328;7.322;2023-02-10T08:04:20;100764.78;;;3.87;74.93
21594;BME280;10959;51.328;7.322;2023-02-10T08:06:46;100759.50;;;3.89;75.08
21594;BME280;10959;51.328;7.322;2023-02-10T08:09:13;100755.06;;;3.92;75.35
21594;BME280;10959;51.328;7.322;2023-02-10T08:11:43;100757.72;;;3.91;75.39
21594;BME280;10959;51.328;7.322;2023-02-10T08:14:10;100764.00;;;3.97;75.17
21594;BME280;10959;51.328;7.322;2023-02-10T08:16:36;100765.81;;;4.02;75.35
21594;BME280;10959;51.328;7.322;2023-02-10T08:19:03;100769.38;;;4.04;75.27
21594;BME280;10959;51.328;7.322;2023-02-10T08:21:29;100771.19;;;4.05;75.28
21594;BME280;10959;51.328;7.322;2023-02-10T08:23:56;100773.88;;;4.09;75.26
21594;BME280;10959;51.328;7.322;2023-02-10T08:26:22;100775.69;;;4.12;75.22
21594;BME280;10959;51.328;7.322;2023-02-10T08:28:50;100779.22;;;4.12;75.12
21594;BME280;10959;51.328;7.322;2023-02-10T08:31:20;100773.03;;;4.15;75.50
21594;BME280;10959;51.328;7.322;2023-02-10T08:33:46;100773.94;;;4.17;75.39
21594;BME280;10959;51.328;7.322;2023-02-10T08:36:15;100769.53;;;4.22;75.48
21594;BME280;10959;51.328;7.322;2023-02-10T08:38:43;100774.03;;;4.26;75.39
21594;BME280;10959;51.328;7.322;2023-02-10T08:41:09;100770.44;;;4.24;75.49
21594;BME280;10959;51.328;7.322;2023-02-10T08:43:36;100777.59;;;4.30;75.33
21594;BME280;10959;51.328;7.322;2023-02-10T08:46:04;100770.53;;;4.38;75.17
21594;BME280;10959;51.328;7.322;2023-02-10T08:48:32;100773.25;;;4.44;75.66
21594;BME280;10959;51.328;7.322;2023-02-10T08:50:59;100775.06;;;4.50;75.98
21594;BME280;10959;51.328;7.322;2023-02-10T08:53:26;100778.75;;;4.67;75.88
21594;BME280;10959;51.328;7.322;2023-02-10T08:55:57;100781.44;;;4.72;75.80
21594;BME280;10959;51.328;7.322;2023-02-10T08:58:23;100791.38;;;4.96;75.70
21594;BME280;10959;51.328;7.322;2023-02-10T09:00:50;100782.59;;;5.19;75.68
21594;BME280;10959;51.328;7.322;2023-02-10T09:03:18;100784.41;;;5.35;75.79
21594;BME280;10959;51.328;7.322;2023-02-10T09:05:45;100788.03;;;5.51;75.75
21594;BME280;10959;51.328;7.322;2023-02-10T09:08:13;100788.06;;;5.59;75.75
21594;BME280;10959;51.328;7.322;2023-02-10T09:10:40;100793.47;;;5.75;75.50
21594;BME280;10959;51.328;7.322;2023-02-10T09:13:06;100794.34;;;5.78;75.24
21594;BME280;10959;51.328;7.322;2023-02-10T09:15:36;100793.47;;;5.84;75.37
21594;BME280;10959;51.328;7.322;2023-02-10T09:18:03;100797.06;;;5.86;75.56
21594;BME280;10959;51.328;7.322;2023-02-10T09:20:31;100790.78;;;5.88;75.16
21594;BME280;10959;51.328;7.322;2023-02-10T09:22:58;100791.69;;;5.92;75.05
21594;BME280;10959;51.328;7.322;2023-02-10T09:25:25;100809.53;;;5.96;74.95
21594;BME280;10959;51.328;7.322;2023-02-10T09:27:51;100807.78;;;5.98;74.50
21594;BME280;10959;51.328;7.322;2023-02-10T09:30:19;100804.22;;;5.99;74.49
21594;BME280;10959;51.328;7.322;2023-02-10T09:32:46;100809.56;;;5.99;74.74
21594;BME280;10959;51.328;7.322;2023-02-10T09:35:13;100806.00;;;6.03;74.60
21594;BME280;10959;51.328;7.322;2023-02-10T09:37:41;100811.38;;;6.03;74.33
21594;BME280;10959;51.328;7.322;2023-02-10T09:40:11;100814.88;;;5.96;74.35
21594;BME280;10959;51.328;7.322;2023-02-10T09:42:55;100824.66;;;5.82;74.67
21594;BME280;10959;51.328;7.322;2023-02-10T09:45:31;100820.19;;;5.87;74.31
21594;BME280;10959;51.328;7.322;2023-02-10T09:48:07;100825.53;;;5.87;74.48
21594;BME280;10959;51.328;7.322;2023-02-10T09:50:47;100822.88;;;5.82;74.53
21594;BME280;10959;51.328;7.322;2023-02-10T09:53:21;100829.13;;;5.92;74.62
21594;BME280;10959;51.328;7.322;2023-02-10T09:55:52;100826.50;;;6.00;74.40
21594;BME280;10959;51.328;7.322;2023-02-10T09:58:28;100828.28;;;5.98;74.54
21594;BME280;10959;51.328;7.322;2023-02-10T10:01:00;100831.88;;;6.06;74.46
21594;BME280;10959;51.328;7.322;2023-02-10T10:03:34;100832.75;;;6.00;74.48
21594;BME280;10959;51.328;7.322;2023-02-10T10:06:12;100831.81;;;5.97;74.67
21594;BME280;10959;51.328;7.322;2023-02-10T10:08:46;100839.00;;;5.99;74.59
21594;BME280;10959;51.328;7.322;2023-02-10T10:11:22;100832.75;;;5.97;74.35
21594;BME280;10959;51.328;7.322;2023-02-10T10:13:50;100839.91;;;6.14;74.51
21594;BME280;10959;51.328;7.322;2023-02-10T10:16:29;100844.34;;;6.04;74.39
21594;BME280;10959;51.328;7.322;2023-02-10T10:19:07;100839.91;;;6.14;74.51
21594;BME280;10959;51.328;7.322;2023-02-10T10:21:45;100831.88;;;6.21;74.12
21594;BME280;10959;51.328;7.322;2023-02-10T10:24:26;100827.41;;;6.31;74.04
21594;BME280;10959;51.328;7.322;2023-02-10T10:27:08;100825.66;;;6.33;74.39
21594;BME280;10959;51.328;7.322;2023-02-10T10:29:43;100822.06;;;6.47;74.46
21594;BME280;10959;51.328;7.322;2023-02-10T10:32:15;100808.69;;;6.53;74.37
21594;BME280;10959;51.328;7.322;2023-02-10T10:34:49;100822.97;;;6.50;74.26
21594;BME280;10959;51.328;7.322;2023-02-10T10:37:19;100816.72;;;6.53;73.86
21594;BME280;10959;51.328;7.322;2023-02-10T10:39:50;100821.19;;;6.49;73.73
21594;BME280;10959;51.328;7.322;2023-02-10T10:42:22;100839.91;;;6.57;73.82
21594;BME280;10959;51.328;7.322;2023-02-10T10:44:55;100832.78;;;6.56;73.75
21594;BME280;10959;51.328;7.322;2023-02-10T10:47:36;100823.84;;;6.35;73.58
21594;BME280;10959;51.328;7.322;2023-02-10T10:50:06;100818.50;;;6.54;73.90
21594;BME280;10959;51.328;7.322;2023-02-10T10:52:35;100831.00;;;6.61;73.54
21594;BME280;10959;51.328;7.322;2023-02-10T10:55:08;100831.00;;;6.55;73.75
21594;BME280;10959;51.328;7.322;2023-02-10T10:57:39;100812.25;;;6.69;73.64
21594;BME280;10959;51.328;7.322;2023-02-10T11:00:16;100810.47;;;6.55;73.36
21594;BME280;10959;51.328;7.322;2023-02-10T11:02:55;100802.44;;;6.63;73.50
21594;BME280;10959;51.328;7.322;2023-02-10T11:05:26;100811.34;;;6.71;73.03
21594;BME280;10959;51.328;7.322;2023-02-10T11:07:54;100811.31;;;6.90;73.15
21594;BME280;10959;51.328;7.322;2023-02-10T11:10:27;100813.94;;;7.10;72.69
21594;BME280;10959;51.328;7.322;2023-02-10T11:12:54;100809.41;;;7.32;72.32
21594;BME280;10959;51.328;7.322;2023-02-10T11:15:33;100805.84;;;7.27;72.72
21594;BME280;10959;51.328;7.322;2023-02-10T11:18:02;100805.75;;;7.52;72.51
21594;BME280;10959;51.328;7.322;2023-02-10T11:20:32;100797.63;;;7.70;72.33
21594;BME280;10959;51.328;7.322;2023-02-10T11:23:02;100792.25;;;7.66;71.65
21594;BME280;10959;51.328;7.322;2023-02-10T11:25:32;100796.69;;;7.71;71.34
21594;BME280;10959;51.328;7.322;2023-02-10T11:28:00;100791.34;;;7.68;71.36
21594;BME280;10959;51.328;7.322;2023-02-10T11:30:28;100784.13;;;7.83;70.80
21594;BME280;10959;51.328;7.322;2023-02-10T11:32:56;100785.06;;;7.75;71.64
21594;BME280;10959;51.328;7.322;2023-02-10T11:35:24;100782.38;;;7.75;71.10
21594;BME280;10959;51.328;7.322;2023-02-10T11:37:53;100781.50;;;7.75;70.86
21594;BME280;10959;51.328;7.322;2023-02-10T11:40:23;100772.41;;;7.98;70.59
21594;BME280;10959;51.328;7.322;2023-02-10T11:42:54;100773.22;;;8.04;70.75
21594;BME280;10959;51.328;7.322;2023-02-10T11:45:23;100772.25;;;8.18;70.78
21594;BME280;10959;51.328;7.322;2023-02-10T11:48:00;100776.75;;;8.12;70.58
21594;BME280;10959;51.328;7.322;2023-02-10T11:50:29;100774.97;;;8.11;70.07
21594;BME280;10959;51.328;7.322;2023-02-10T11:52:56;100774.00;;;8.19;70.15
21594;BME280;10959;51.328;7.322;2023-02-10T11:55:28;100762.31;;;8.29;69.71
21594;BME280;10959;51.328;7.322;2023-02-10T11:58:14;100767.72;;;8.23;69.90
21594;BME280;10959;51.328;7.322;2023-02-10T12:01:08;100753.47;;;8.18;69.90
21594;BME280;10959;51.328;7.322;2023-02-10T12:03:46;100755.31;;;8.09;69.54
21594;BME280;10959;51.328;7.322;2023-02-10T12:06:21;100750.81;;;8.16;69.48
21594;BME280;10959;51.328;7.322;2023-02-10T12:08:55;100757.00;;;8.20;68.99
21594;BME280;10959;51.328;7.322;2023-02-10T12:11:28;100758.84;;;8.18;68.82
21594;BME280;10959;51.328;7.322;2023-02-10T12:14:06;100771.31;;;8.19;68.67
21594;BME280;10959;51.328;7.322;2023-02-10T12:16:48;100762.34;;;8.26;69.21
21594;BME280;10959;51.328;7.322;2023-02-10T12:19:22;100756.81;;;8.41;69.11
21594;BME280;10959;51.328;7.322;2023-02-10T12:22:02;100747.88;;;8.45;68.69
21594;BME280;10959;51.328;7.322;2023-02-10T12:24:40;100745.97;;;8.57;68.21
21594;BME280;10959;51.328;7.322;2023-02-10T12:27:17;100744.09;;;8.65;68.32
21594;BME280;10959;51.328;7.322;2023-02-10T12:29:56;100739.63;;;8.65;68.49
21594;BME280;10959;51.328;7.322;2023-02-10T12:32:32;100729.72;;;8.71;68.12
21594;BME280;10959;51.328;7.322;2023-02-10T12:35:25;100726.13;;;8.73;67.91
21594;BME280;10959;51.328;7.322;2023-02-10T12:38:03;100721.47;;;8.89;67.92
21594;BME280;10959;51.328;7.322;2023-02-10T12:40:45;100711.63;;;8.87;67.93
21594;BME280;10959;51.328;7.322;2023-02-10T12:43:26;100709.84;;;8.86;67.50
21594;BME280;10959;51.328;7.322;2023-02-10T12:46:04;100709.03;;;8.79;67.40
21594;BME280;10959;51.328;7.322;2023-02-10T12:48:40;100702.72;;;8.85;67.01
21594;BME280;10959;51.328;7.322;2023-02-10T12:51:27;100699.06;;;8.89;67.86
21594;BME280;10959;51.328;7.322;2023-02-10T12:53:59;100702.31;;;9.15;67.73
21594;BME280;10959;51.328;7.322;2023-02-10T12:56:33;100702.25;;;9.22;67.33
21594;BME280;10959;51.328;7.322;2023-02-10T12:59:06;100702.06;;;9.34;66.60
21594;BME280;10959;51.328;7.322;2023-02-10T13:01:39;100698.19;;;9.54;66.73
21594;BME280;10959;51.328;7.322;2023-02-10T13:04:15;100691.06;;;9.51;66.23
21594;BME280;10959;51.328;7.322;2023-02-10T13:06:46;100699.00;;;9.59;65.67
21594;BME280;10959;51.328;7.322;2023-02-10T13:09:21;100692.66;;;9.66;65.15
21594;BME280;10959;51.328;7.322;2023-02-10T13:12:12;100689.16;;;9.59;65.48
21594;BME280;10959;51.328;7.322;2023-02-10T13:14:42;100676.28;;;9.78;64.76